Bunnlevel, North Carolina
Current Conditions -  °F | °C
As of 4:15 PM on Tuesday 21 Oct 2014 (Local Time) from KHRJ Reporting Station
Broken Clouds Broken Clouds  
Wind Chill: 75°   Ceiling: 6000
Heat Index: 75°   Visibility: 10mi
Dew Point: 47°   Wind: 5mph
Humidity: 37%   Direction: 300°WNW
Pressure: 29.84"   Gusts: NA
Location:  35.31°N, 78.78°W
Report Text: KHRJ 212015Z AUTO 30004KT 10SM BKN060 24/08 A2984 RMK AO2 T02380083
Loading
Personal Weather Stations






























Interactive Weather Map
Tropical Storm Tracking
New forecast layout! Learn more

10-Day Weather Forecast

Advertisements
Track Severe Weather on mobile